sensor_id;sensor_type;location;lat;lon;timestamp;temperature;humidity
24470;DHT22;12635;50.852;5.676;2023-01-26T00:02:15;-1.70;99.90
24470;DHT22;12635;50.852;5.676;2023-01-26T00:04:42;-1.70;99.90
24470;DHT22;12635;50.852;5.676;2023-01-26T00:07:09;-1.70;99.90
24470;DHT22;12635;50.852;5.676;2023-01-26T00:09:35;-1.60;99.90
24470;DHT22;12635;50.852;5.676;2023-01-26T00:12:02;-1.70;99.90
24470;DHT22;12635;50.852;5.676;2023-01-26T00:14:31;-1.70;99.90
24470;DHT22;12635;50.852;5.676;2023-01-26T00:17:14;-1.60;99.90
24470;DHT22;12635;50.852;5.676;2023-01-26T00:19:51;-1.60;99.90
24470;DHT22;12635;50.852;5.676;2023-01-26T00:22:18;-1.60;99.90
24470;DHT22;12635;50.852;5.676;2023-01-26T00:24:45;-1.70;99.90
24470;DHT22;12635;50.852;5.676;2023-01-26T00:27:11;-1.70;99.90
24470;DHT22;12635;50.852;5.676;2023-01-26T00:29:40;-1.60;99.90
24470;DHT22;12635;50.852;5.676;2023-01-26T00:32:07;-1.70;99.90
24470;DHT22;12635;50.852;5.676;2023-01-26T00:34:34;-1.70;99.90
24470;DHT22;12635;50.852;5.676;2023-01-26T00:37:01;-1.70;99.90
24470;DHT22;12635;50.852;5.676;2023-01-26T00:39:28;-1.80;99.90
24470;DHT22;12635;50.852;5.676;2023-01-26T00:41:54;-1.70;99.90
24470;DHT22;12635;50.852;5.676;2023-01-26T00:44:36;-1.80;99.90
24470;DHT22;12635;50.852;5.676;2023-01-26T00:47:06;-1.80;99.90
24470;DHT22;12635;50.852;5.676;2023-01-26T00:49:33;-1.80;99.90
24470;DHT22;12635;50.852;5.676;2023-01-26T00:52:00;-1.80;99.90
24470;DHT22;12635;50.852;5.676;2023-01-26T00:54:27;-1.80;99.90
24470;DHT22;12635;50.852;5.676;2023-01-26T00:56:54;-1.80;99.90
24470;DHT22;12635;50.852;5.676;2023-01-26T00:59:21;-1.80;99.90
24470;DHT22;12635;50.852;5.676;2023-01-26T01:01:48;-1.80;99.90
24470;DHT22;12635;50.852;5.676;2023-01-26T01:04:16;-1.80;99.90
24470;DHT22;12635;50.852;5.676;2023-01-26T01:06:43;-1.80;99.90
24470;DHT22;12635;50.852;5.676;2023-01-26T01:09:10;-1.80;99.90
24470;DHT22;12635;50.852;5.676;2023-01-26T01:11:37;-1.80;99.90
24470;DHT22;12635;50.852;5.676;2023-01-26T01:14:04;-1.80;99.90
24470;DHT22;12635;50.852;5.676;2023-01-26T01:16:31;-1.80;99.90
24470;DHT22;12635;50.852;5.676;2023-01-26T01:18:58;-1.80;99.90
24470;DHT22;12635;50.852;5.676;2023-01-26T01:21:26;-1.80;99.90
24470;DHT22;12635;50.852;5.676;2023-01-26T01:23:53;-1.80;99.90
24470;DHT22;12635;50.852;5.676;2023-01-26T01:26:20;-1.70;99.90
24470;DHT22;12635;50.852;5.676;2023-01-26T01:28:47;-1.80;99.90
24470;DHT22;12635;50.852;5.676;2023-01-26T01:31:14;-1.80;99.90
24470;DHT22;12635;50.852;5.676;2023-01-26T01:33:41;-1.70;99.90
24470;DHT22;12635;50.852;5.676;2023-01-26T01:36:09;-1.70;99.90
24470;DHT22;12635;50.852;5.676;2023-01-26T01:38:38;-1.70;99.90
24470;DHT22;12635;50.852;5.676;2023-01-26T01:41:05;-1.70;99.90
24470;DHT22;12635;50.852;5.676;2023-01-26T01:43:32;-1.70;99.90
24470;DHT22;12635;50.852;5.676;2023-01-26T01:45:59;-1.70;99.90
24470;DHT22;12635;50.852;5.676;2023-01-26T01:48:27;-1.70;99.90
24470;DHT22;12635;50.852;5.676;2023-01-26T01:50:56;-1.70;99.90
24470;DHT22;12635;50.852;5.676;2023-01-26T01:53:25;-1.70;99.90
24470;DHT22;12635;50.852;5.676;2023-01-26T01:55:55;-1.70;99.90
24470;DHT22;12635;50.852;5.676;2023-01-26T01:58:22;-1.70;99.90
24470;DHT22;12635;50.852;5.676;2023-01-26T02:00:49;-1.60;99.90
24470;DHT22;12635;50.852;5.676;2023-01-26T02:03:16;-1.60;99.90
24470;DHT22;12635;50.852;5.676;2023-01-26T02:05:51;-1.60;99.90
24470;DHT22;12635;50.852;5.676;2023-01-26T02:08:20;-1.60;99.90
24470;DHT22;12635;50.852;5.676;2023-01-26T02:10:48;-1.60;99.90
24470;DHT22;12635;50.852;5.676;2023-01-26T02:13:17;-1.60;99.90
24470;DHT22;12635;50.852;5.676;2023-01-26T02:15:44;-1.60;99.90
24470;DHT22;12635;50.852;5.676;2023-01-26T02:18:11;-1.50;99.90
24470;DHT22;12635;50.852;5.676;2023-01-26T02:20:40;-1.50;99.90
24470;DHT22;12635;50.852;5.676;2023-01-26T02:23:10;-1.60;99.90
24470;DHT22;12635;50.852;5.676;2023-01-26T02:25:43;-1.60;99.90
24470;DHT22;12635;50.852;5.676;2023-01-26T02:28:14;-1.50;99.90
24470;DHT22;12635;50.852;5.676;2023-01-26T02:30:42;-1.50;99.90
24470;DHT22;12635;50.852;5.676;2023-01-26T02:33:13;-1.40;99.90
24470;DHT22;12635;50.852;5.676;2023-01-26T02:35:40;-1.40;99.90
24470;DHT22;12635;50.852;5.676;2023-01-26T02:38:07;-1.40;99.90
24470;DHT22;12635;50.852;5.676;2023-01-26T02:40:35;-1.50;99.90
24470;DHT22;12635;50.852;5.676;2023-01-26T02:43:03;-1.40;99.90
24470;DHT22;12635;50.852;5.676;2023-01-26T02:45:30;-1.40;99.90
24470;DHT22;12635;50.852;5.676;2023-01-26T02:47:58;-1.50;99.90
24470;DHT22;12635;50.852;5.676;2023-01-26T02:50:29;-1.50;99.90
24470;DHT22;12635;50.852;5.676;2023-01-26T02:52:55;-1.40;99.90
24470;DHT22;12635;50.852;5.676;2023-01-26T02:55:22;-1.50;99.90
24470;DHT22;12635;50.852;5.676;2023-01-26T02:57:50;-1.40;99.90
24470;DHT22;12635;50.852;5.676;2023-01-26T03:00:17;-1.40;99.90
24470;DHT22;12635;50.852;5.676;2023-01-26T03:02:46;-1.40;99.90
24470;DHT22;12635;50.852;5.676;2023-01-26T03:05:14;-1.40;99.90
24470;DHT22;12635;50.852;5.676;2023-01-26T03:07:40;-1.40;99.90
24470;DHT22;12635;50.852;5.676;2023-01-26T03:10:08;-1.40;99.90
24470;DHT22;12635;50.852;5.676;2023-01-26T03:12:35;-1.40;99.90
24470;DHT22;12635;50.852;5.676;2023-01-26T03:15:02;-1.40;99.90
24470;DHT22;12635;50.852;5.676;2023-01-26T03:17:48;-1.30;99.90
24470;DHT22;12635;50.852;5.676;2023-01-26T03:20:15;-1.30;99.90
24470;DHT22;12635;50.852;5.676;2023-01-26T03:22:59;-1.30;99.90
24470;DHT22;12635;50.852;5.676;2023-01-26T03:25:43;-1.30;99.90
24470;DHT22;12635;50.852;5.676;2023-01-26T03:28:27;-1.30;99.90
24470;DHT22;12635;50.852;5.676;2023-01-26T03:30:54;-1.30;99.90
24470;DHT22;12635;50.852;5.676;2023-01-26T03:33:24;-1.30;99.90
24470;DHT22;12635;50.852;5.676;2023-01-26T03:35:51;-1.30;99.90
24470;DHT22;12635;50.852;5.676;2023-01-26T03:38:18;-1.20;99.90
24470;DHT22;12635;50.852;5.676;2023-01-26T03:40:45;-1.30;99.90
24470;DHT22;12635;50.852;5.676;2023-01-26T03:43:30;-1.20;99.90
24470;DHT22;12635;50.852;5.676;2023-01-26T03:46:14;-1.30;99.90
24470;DHT22;12635;50.852;5.676;2023-01-26T03:48:59;-1.20;99.90
24470;DHT22;12635;50.852;5.676;2023-01-26T03:51:44;-1.20;99.90
24470;DHT22;12635;50.852;5.676;2023-01-26T03:54:28;-1.20;99.90
24470;DHT22;12635;50.852;5.676;2023-01-26T03:57:12;-1.20;99.90
24470;DHT22;12635;50.852;5.676;2023-01-26T03:59:39;-1.10;99.90
24470;DHT22;12635;50.852;5.676;2023-01-26T04:02:07;-1.10;99.90
24470;DHT22;12635;50.852;5.676;2023-01-26T04:04:53;-1.20;99.90
24470;DHT22;12635;50.852;5.676;2023-01-26T04:07:37;-1.10;99.90
24470;DHT22;12635;50.852;5.676;2023-01-26T04:10:22;-1.10;99.90
24470;DHT22;12635;50.852;5.676;2023-01-26T04:12:49;-1.00;99.90
24470;DHT22;12635;50.852;5.676;2023-01-26T04:15:34;-1.10;99.90
24470;DHT22;12635;50.852;5.676;2023-01-26T04:18:18;-1.10;99.90
24470;DHT22;12635;50.852;5.676;2023-01-26T04:21:04;-1.00;99.90
24470;DHT22;12635;50.852;5.676;2023-01-26T04:23:48;-1.00;99.90
24470;DHT22;12635;50.852;5.676;2023-01-26T04:26:15;-1.10;99.90
24470;DHT22;12635;50.852;5.676;2023-01-26T04:28:42;-1.00;99.90
24470;DHT22;12635;50.852;5.676;2023-01-26T04:31:09;-1.00;99.90
24470;DHT22;12635;50.852;5.676;2023-01-26T04:33:36;-1.00;99.90
24470;DHT22;12635;50.852;5.676;2023-01-26T04:36:05;-1.00;99.90
24470;DHT22;12635;50.852;5.676;2023-01-26T04:38:32;-0.90;99.90
24470;DHT22;12635;50.852;5.676;2023-01-26T04:40:59;-0.90;99.90
24470;DHT22;12635;50.852;5.676;2023-01-26T04:43:26;-0.90;99.90
24470;DHT22;12635;50.852;5.676;2023-01-26T04:45:56;-0.90;99.90
24470;DHT22;12635;50.852;5.676;2023-01-26T04:48:23;-0.90;99.90
24470;DHT22;12635;50.852;5.676;2023-01-26T04:50:52;-0.90;99.90
24470;DHT22;12635;50.852;5.676;2023-01-26T04:53:20;-0.90;99.90
24470;DHT22;12635;50.852;5.676;2023-01-26T04:55:47;-0.80;99.90
24470;DHT22;12635;50.852;5.676;2023-01-26T04:58:14;-0.80;99.90
24470;DHT22;12635;50.852;5.676;2023-01-26T05:00:41;-0.80;99.90
24470;DHT22;12635;50.852;5.676;2023-01-26T05:03:08;-0.90;99.90
24470;DHT22;12635;50.852;5.676;2023-01-26T05:05:35;-0.80;99.90
24470;DHT22;12635;50.852;5.676;2023-01-26T05:08:02;-0.80;99.90
24470;DHT22;12635;50.852;5.676;2023-01-26T05:10:30;-0.80;99.90
24470;DHT22;12635;50.852;5.676;2023-01-26T05:12:58;-0.80;99.90
24470;DHT22;12635;50.852;5.676;2023-01-26T05:15:25;-0.80;99.90
24470;DHT22;12635;50.852;5.676;2023-01-26T05:17:51;-0.80;99.90
24470;DHT22;12635;50.852;5.676;2023-01-26T05:20:18;-0.80;99.90
24470;DHT22;12635;50.852;5.676;2023-01-26T05:22:45;-0.90;99.90
24470;DHT22;12635;50.852;5.676;2023-01-26T05:25:12;-0.80;99.90
24470;DHT22;12635;50.852;5.676;2023-01-26T05:27:40;-0.80;99.90
24470;DHT22;12635;50.852;5.676;2023-01-26T05:30:08;-0.80;99.90
24470;DHT22;12635;50.852;5.676;2023-01-26T05:32:35;-0.80;99.90
24470;DHT22;12635;50.852;5.676;2023-01-26T05:35:02;-0.70;99.90
24470;DHT22;12635;50.852;5.676;2023-01-26T05:37:29;-0.70;99.90
24470;DHT22;12635;50.852;5.676;2023-01-26T05:39:56;-0.70;99.90
24470;DHT22;12635;50.852;5.676;2023-01-26T05:42:23;-0.60;99.90
24470;DHT22;12635;50.852;5.676;2023-01-26T05:44:51;-0.70;99.90
24470;DHT22;12635;50.852;5.676;2023-01-26T05:47:18;-0.70;99.90
24470;DHT22;12635;50.852;5.676;2023-01-26T05:49:45;-0.80;99.90
24470;DHT22;12635;50.852;5.676;2023-01-26T05:52:13;-0.70;99.90
24470;DHT22;12635;50.852;5.676;2023-01-26T05:54:40;-0.70;99.90
24470;DHT22;12635;50.852;5.676;2023-01-26T05:57:07;-0.70;99.90
24470;DHT22;12635;50.852;5.676;2023-01-26T05:59:34;-0.70;99.90
24470;DHT22;12635;50.852;5.676;2023-01-26T06:02:03;-0.70;99.90
24470;DHT22;12635;50.852;5.676;2023-01-26T06:04:29;-0.60;99.90
24470;DHT22;12635;50.852;5.676;2023-01-26T06:06:57;-0.60;99.90
24470;DHT22;12635;50.852;5.676;2023-01-26T06:09:24;-0.60;99.90
24470;DHT22;12635;50.852;5.676;2023-01-26T06:11:51;-0.60;99.90
24470;DHT22;12635;50.852;5.676;2023-01-26T06:14:18;-0.50;99.90
24470;DHT22;12635;50.852;5.676;2023-01-26T06:16:45;-0.60;99.90
24470;DHT22;12635;50.852;5.676;2023-01-26T06:19:13;-0.60;99.90
24470;DHT22;12635;50.852;5.676;2023-01-26T06:21:40;-0.50;99.90
24470;DHT22;12635;50.852;5.676;2023-01-26T06:24:07;-0.50;99.90
24470;DHT22;12635;50.852;5.676;2023-01-26T06:26:34;-0.60;99.90
24470;DHT22;12635;50.852;5.676;2023-01-26T06:29:01;-0.50;99.90
24470;DHT22;12635;50.852;5.676;2023-01-26T06:31:28;-0.50;99.90
24470;DHT22;12635;50.852;5.676;2023-01-26T06:33:55;-0.40;99.90
24470;DHT22;12635;50.852;5.676;2023-01-26T06:36:23;-0.50;99.90
24470;DHT22;12635;50.852;5.676;2023-01-26T06:38:50;-0.50;99.90
24470;DHT22;12635;50.852;5.676;2023-01-26T06:41:18;-0.50;99.90
24470;DHT22;12635;50.852;5.676;2023-01-26T06:43:46;-0.50;99.90
24470;DHT22;12635;50.852;5.676;2023-01-26T06:46:13;-0.50;99.90
24470;DHT22;12635;50.852;5.676;2023-01-26T06:48:41;-0.50;99.90
24470;DHT22;12635;50.852;5.676;2023-01-26T06:53:52;-0.50;99.90
24470;DHT22;12635;50.852;5.676;2023-01-26T06:56:19;-0.40;99.90
24470;DHT22;12635;50.852;5.676;2023-01-26T06:58:46;-0.50;99.90
24470;DHT22;12635;50.852;5.676;2023-01-26T07:01:13;-0.40;99.90
24470;DHT22;12635;50.852;5.676;2023-01-26T07:03:42;-0.40;99.90
24470;DHT22;12635;50.852;5.676;2023-01-26T07:06:09;-0.40;99.90
24470;DHT22;12635;50.852;5.676;2023-01-26T07:08:36;-0.40;99.90
24470;DHT22;12635;50.852;5.676;2023-01-26T07:11:05;-0.30;99.90
24470;DHT22;12635;50.852;5.676;2023-01-26T07:13:32;-0.40;99.90
24470;DHT22;12635;50.852;5.676;2023-01-26T07:15:59;-0.30;99.90
24470;DHT22;12635;50.852;5.676;2023-01-26T07:18:26;-0.30;99.90
24470;DHT22;12635;50.852;5.676;2023-01-26T07:20:53;-0.40;99.90
24470;DHT22;12635;50.852;5.676;2023-01-26T07:23:20;-0.30;99.90
24470;DHT22;12635;50.852;5.676;2023-01-26T07:25:47;-0.30;99.90
24470;DHT22;12635;50.852;5.676;2023-01-26T07:28:15;-0.30;99.90
24470;DHT22;12635;50.852;5.676;2023-01-26T07:30:42;-0.30;99.90
24470;DHT22;12635;50.852;5.676;2023-01-26T07:33:09;-0.30;99.90
24470;DHT22;12635;50.852;5.676;2023-01-26T07:35:36;-0.30;99.90
24470;DHT22;12635;50.852;5.676;2023-01-26T07:38:03;-0.30;99.90
24470;DHT22;12635;50.852;5.676;2023-01-26T07:40:30;-0.30;99.90
24470;DHT22;12635;50.852;5.676;2023-01-26T07:42:57;-0.20;99.90
24470;DHT22;12635;50.852;5.676;2023-01-26T07:45:26;-0.20;99.90
24470;DHT22;12635;50.852;5.676;2023-01-26T07:47:53;-0.10;99.90
24470;DHT22;12635;50.852;5.676;2023-01-26T07:50:20;-0.20;99.90
24470;DHT22;12635;50.852;5.676;2023-01-26T07:52:47;-0.20;99.90
24470;DHT22;12635;50.852;5.676;2023-01-26T07:55:17;-0.20;99.90
24470;DHT22;12635;50.852;5.676;2023-01-26T07:57:46;-0.20;99.90
24470;DHT22;12635;50.852;5.676;2023-01-26T08:00:13;-0.10;99.90
24470;DHT22;12635;50.852;5.676;2023-01-26T08:02:42;-0.10;99.90
24470;DHT22;12635;50.852;5.676;2023-01-26T08:05:09;-0.10;99.90
24470;DHT22;12635;50.852;5.676;2023-01-26T08:07:36;-0.10;99.90
24470;DHT22;12635;50.852;5.676;2023-01-26T08:10:03;-0.10;99.90
24470;DHT22;12635;50.852;5.676;2023-01-26T08:12:30;-0.10;99.90
24470;DHT22;12635;50.852;5.676;2023-01-26T08:14:57;-0.10;99.90
24470;DHT22;12635;50.852;5.676;2023-01-26T08:17:23;-0.10;99.90
24470;DHT22;12635;50.852;5.676;2023-01-26T08:19:52;-0.10;99.90
24470;DHT22;12635;50.852;5.676;2023-01-26T08:22:19;-0.10;99.90
24470;DHT22;12635;50.852;5.676;2023-01-26T08:24:45;0.00;99.90
24470;DHT22;12635;50.852;5.676;2023-01-26T08:27:12;0.10;99.90
24470;DHT22;12635;50.852;5.676;2023-01-26T08:29:40;0.00;99.90
24470;DHT22;12635;50.852;5.676;2023-01-26T08:32:07;0.10;99.90
24470;DHT22;12635;50.852;5.676;2023-01-26T08:34:34;0.10;99.90
24470;DHT22;12635;50.852;5.676;2023-01-26T08:37:03;0.10;99.90
24470;DHT22;12635;50.852;5.676;2023-01-26T08:39:30;0.20;99.90
24470;DHT22;12635;50.852;5.676;2023-01-26T08:41:57;0.10;99.90
24470;DHT22;12635;50.852;5.676;2023-01-26T08:44:23;0.20;99.90
24470;DHT22;12635;50.852;5.676;2023-01-26T08:46:50;0.30;99.90
24470;DHT22;12635;50.852;5.676;2023-01-26T08:49:17;0.20;99.90
24470;DHT22;12635;50.852;5.676;2023-01-26T08:51:44;0.20;99.90
24470;DHT22;12635;50.852;5.676;2023-01-26T08:54:13;0.20;99.90
24470;DHT22;12635;50.852;5.676;2023-01-26T08:56:39;0.30;99.90
24470;DHT22;12635;50.852;5.676;2023-01-26T08:59:06;0.20;99.90
24470;DHT22;12635;50.852;5.676;2023-01-26T09:01:33;0.30;99.90
24470;DHT22;12635;50.852;5.676;2023-01-26T09:04:00;0.30;99.90
24470;DHT22;12635;50.852;5.676;2023-01-26T09:06:27;0.20;99.90
24470;DHT22;12635;50.852;5.676;2023-01-26T09:08:55;0.30;99.90
24470;DHT22;12635;50.852;5.676;2023-01-26T09:11:23;0.20;99.90
24470;DHT22;12635;50.852;5.676;2023-01-26T09:13:50;0.30;99.90
24470;DHT22;12635;50.852;5.676;2023-01-26T09:16:21;0.30;99.90
24470;DHT22;12635;50.852;5.676;2023-01-26T09:18:48;0.40;99.90
24470;DHT22;12635;50.852;5.676;2023-01-26T09:21:15;0.40;99.90
24470;DHT22;12635;50.852;5.676;2023-01-26T09:23:42;0.30;99.90
24470;DHT22;12635;50.852;5.676;2023-01-26T09:26:09;0.50;99.90
24470;DHT22;12635;50.852;5.676;2023-01-26T09:28:37;0.50;99.90
24470;DHT22;12635;50.852;5.676;2023-01-26T09:31:05;0.50;99.90
24470;DHT22;12635;50.852;5.676;2023-01-26T09:33:32;0.50;99.90
24470;DHT22;12635;50.852;5.676;2023-01-26T09:36:03;0.40;99.90
24470;DHT22;12635;50.852;5.676;2023-01-26T09:38:30;0.50;99.90
24470;DHT22;12635;50.852;5.676;2023-01-26T09:40:59;0.40;99.90
24470;DHT22;12635;50.852;5.676;2023-01-26T09:43:30;0.40;99.90
24470;DHT22;12635;50.852;5.676;2023-01-26T09:46:04;0.50;99.90
24470;DHT22;12635;50.852;5.676;2023-01-26T09:48:34;0.50;99.90
24470;DHT22;12635;50.852;5.676;2023-01-26T09:51:04;0.60;99.90
24470;DHT22;12635;50.852;5.676;2023-01-26T09:53:38;0.50;99.90
24470;DHT22;12635;50.852;5.676;2023-01-26T09:56:09;0.60;99.90
24470;DHT22;12635;50.852;5.676;2023-01-26T09:58:39;0.50;99.90
24470;DHT22;12635;50.852;5.676;2023-01-26T10:01:11;0.50;99.90
24470;DHT22;12635;50.852;5.676;2023-01-26T10:03:40;0.60;99.90
24470;DHT22;12635;50.852;5.676;2023-01-26T10:06:12;0.70;99.90
24470;DHT22;12635;50.852;5.676;2023-01-26T10:08:40;0.70;99.90
24470;DHT22;12635;50.852;5.676;2023-01-26T10:11:11;0.80;99.90
24470;DHT22;12635;50.852;5.676;2023-01-26T10:13:39;0.80;99.90
24470;DHT22;12635;50.852;5.676;2023-01-26T10:16:07;0.80;99.90
24470;DHT22;12635;50.852;5.676;2023-01-26T10:18:39;0.70;99.90
24470;DHT22;12635;50.852;5.676;2023-01-26T10:21:08;0.80;99.90
24470;DHT22;12635;50.852;5.676;2023-01-26T10:23:35;0.80;99.90
24470;DHT22;12635;50.852;5.676;2023-01-26T10:26:11;0.60;99.90
24470;DHT22;12635;50.852;5.676;2023-01-26T10:28:38;0.70;99.90
24470;DHT22;12635;50.852;5.676;2023-01-26T10:31:09;0.60;99.90
24470;DHT22;12635;50.852;5.676;2023-01-26T10:33:38;0.60;99.90
24470;DHT22;12635;50.852;5.676;2023-01-26T10:36:07;0.60;99.90
24470;DHT22;12635;50.852;5.676;2023-01-26T10:38:39;0.80;99.90
24470;DHT22;12635;50.852;5.676;2023-01-26T10:41:08;0.60;99.90
24470;DHT22;12635;50.852;5.676;2023-01-26T10:43:49;0.60;99.90
24470;DHT22;12635;50.852;5.676;2023-01-26T10:46:22;0.80;99.90
24470;DHT22;12635;50.852;5.676;2023-01-26T10:48:51;1.00;99.90
24470;DHT22;12635;50.852;5.676;2023-01-26T10:51:22;0.90;99.90
24470;DHT22;12635;50.852;5.676;2023-01-26T10:53:49;1.00;99.90
24470;DHT22;12635;50.852;5.676;2023-01-26T10:56:15;1.00;99.90
24470;DHT22;12635;50.852;5.676;2023-01-26T10:58:43;1.00;99.90
24470;DHT22;12635;50.852;5.676;2023-01-26T11:01:12;1.00;99.90
24470;DHT22;12635;50.852;5.676;2023-01-26T11:03:41;0.90;99.90
24470;DHT22;12635;50.852;5.676;2023-01-26T11:06:13;1.10;99.90
24470;DHT22;12635;50.852;5.676;2023-01-26T11:08:40;1.10;99.90
24470;DHT22;12635;50.852;5.676;2023-01-26T11:11:20;0.90;99.90
24470;DHT22;12635;50.852;5.676;2023-01-26T11:13:47;1.00;99.90
24470;DHT22;12635;50.852;5.676;2023-01-26T11:16:18;1.00;99.90
24470;DHT22;12635;50.852;5.676;2023-01-26T11:18:49;0.80;99.90
24470;DHT22;12635;50.852;5.676;2023-01-26T11:21:20;0.90;99.90
24470;DHT22;12635;50.852;5.676;2023-01-26T11:23:55;0.90;99.90
24470;DHT22;12635;50.852;5.676;2023-01-26T11:26:50;1.10;99.90
24470;DHT22;12635;50.852;5.676;2023-01-26T11:29:28;1.10;99.90
24470;DHT22;12635;50.852;5.676;2023-01-26T11:31:58;1.20;99.90
24470;DHT22;12635;50.852;5.676;2023-01-26T11:34:32;1.20;99.90
24470;DHT22;12635;50.852;5.676;2023-01-26T11:37:05;1.20;99.90
24470;DHT22;12635;50.852;5.676;2023-01-26T11:39:38;1.30;99.90
24470;DHT22;12635;50.852;5.676;2023-01-26T11:42:12;1.20;99.90
24470;DHT22;12635;50.852;5.676;2023-01-26T11:44:48;1.20;99.90
24470;DHT22;12635;50.852;5.676;2023-01-26T11:47:27;1.10;99.90
24470;DHT22;12635;50.852;5.676;2023-01-26T11:50:05;1.20;99.90
24470;DHT22;12635;50.852;5.676;2023-01-26T11:52:45;1.40;99.90
24470;DHT22;12635;50.852;5.676;2023-01-26T11:55:20;1.30;99.90
24470;DHT22;12635;50.852;5.676;2023-01-26T11:57:52;1.60;99.90
24470;DHT22;12635;50.852;5.676;2023-01-26T12:00:22;1.50;99.90
24470;DHT22;12635;50.852;5.676;2023-01-26T12:02:52;1.50;99.90
24470;DHT22;12635;50.852;5.676;2023-01-26T12:05:21;1.60;99.90
24470;DHT22;12635;50.852;5.676;2023-01-26T12:07:52;1.60;99.90
24470;DHT22;12635;50.852;5.676;2023-01-26T12:10:22;1.40;99.90
24470;DHT22;12635;50.852;5.676;2023-01-26T12:12:51;1.40;99.90
24470;DHT22;12635;50.852;5.676;2023-01-26T12:15:20;1.40;99.90
24470;DHT22;12635;50.852;5.676;2023-01-26T12:17:50;1.40;99.90
24470;DHT22;12635;50.852;5.676;2023-01-26T12:20:26;1.40;99.90
24470;DHT22;12635;50.852;5.676;2023-01-26T12:22:59;1.60;99.90
24470;DHT22;12635;50.852;5.676;2023-01-26T12:25:28;1.60;99.90
24470;DHT22;12635;50.852;5.676;2023-01-26T12:27:59;1.80;99.90
24470;DHT22;12635;50.852;5.676;2023-01-26T12:30:30;1.90;99.90
24470;DHT22;12635;50.852;5.676;2023-01-26T12:32:58;1.90;99.90
24470;DHT22;12635;50.852;5.676;2023-01-26T12:35:27;1.90;99.90
24470;DHT22;12635;50.852;5.676;2023-01-26T12:38:01;2.00;99.90
24470;DHT22;12635;50.852;5.676;2023-01-26T12:40:30;1.80;99.90
24470;DHT22;12635;50.852;5.676;2023-01-26T12:43:05;1.80;99.90
24470;DHT22;12635;50.852;5.676;2023-01-26T12:45:38;1.80;99.90
24470;DHT22;12635;50.852;5.676;2023-01-26T12:48:06;1.80;99.90
24470;DHT22;12635;50.852;5.676;2023-01-26T12:50:38;1.80;99.90
24470;DHT22;12635;50.852;5.676;2023-01-26T12:53:09;2.00;99.90
24470;DHT22;12635;50.852;5.676;2023-01-26T12:55:38;1.80;99.90
24470;DHT22;12635;50.852;5.676;2023-01-26T12:58:08;2.10;99.90
24470;DHT22;12635;50.852;5.676;2023-01-26T13:00:37;2.10;99.90
24470;DHT22;12635;50.852;5.676;2023-01-26T13:03:05;2.10;99.90
24470;DHT22;12635;50.852;5.676;2023-01-26T13:05:53;2.00;99.90
24470;DHT22;12635;50.852;5.676;2023-01-26T13:08:46;2.00;99.90
24470;DHT22;12635;50.852;5.676;2023-01-26T13:13:57;1.80;99.90
24470;DHT22;12635;50.852;5.676;2023-01-26T13:16:31;1.90;99.90
24470;DHT22;12635;50.852;5.676;2023-01-26T13:18:58;1.80;99.90
24470;DHT22;12635;50.852;5.676;2023-01-26T13:21:25;1.80;99.90
24470;DHT22;12635;50.852;5.676;2023-01-26T13:23:54;1.90;99.90
24470;DHT22;12635;50.852;5.676;2023-01-26T13:29:25;1.90;99.90
24470;DHT22;12635;50.852;5.676;2023-01-26T13:31:52;1.70;99.90
24470;DHT22;12635;50.852;5.676;2023-01-26T13:34:23;1.70;99.90
24470;DHT22;12635;50.852;5.676;2023-01-26T13:36:52;1.70;99.90
24470;DHT22;12635;50.852;5.676;2023-01-26T13:39:26;2.10;99.90
24470;DHT22;12635;50.852;5.676;2023-01-26T13:41:55;2.10;99.90
24470;DHT22;12635;50.852;5.676;2023-01-26T13:44:22;1.80;99.90
24470;DHT22;12635;50.852;5.676;2023-01-26T13:46:52;2.20;99.90
24470;DHT22;12635;50.852;5.676;2023-01-26T13:49:24;2.00;99.90
24470;DHT22;12635;50.852;5.676;2023-01-26T13:51:52;2.00;99.90
24470;DHT22;12635;50.852;5.676;2023-01-26T13:54:19;2.30;99.90
24470;DHT22;12635;50.852;5.676;2023-01-26T13:56:59;2.10;99.90
24470;DHT22;12635;50.852;5.676;2023-01-26T13:59:27;2.20;99.90
24470;DHT22;12635;50.852;5.676;2023-01-26T14:01:54;2.40;99.90
24470;DHT22;12635;50.852;5.676;2023-01-26T14:04:22;2.00;99.90
24470;DHT22;12635;50.852;5.676;2023-01-26T14:06:50;2.10;99.90
24470;DHT22;12635;50.852;5.676;2023-01-26T14:09:18;2.20;99.90
24470;DHT22;12635;50.852;5.676;2023-01-26T14:11:47;2.40;99.90
24470;DHT22;12635;50.852;5.676;2023-01-26T14:14:22;2.30;99.90
24470;DHT22;12635;50.852;5.676;2023-01-26T14:16:49;2.50;99.90
24470;DHT22;12635;50.852;5.676;2023-01-26T14:19:17;2.30;99.90
24470;DHT22;12635;50.852;5.676;2023-01-26T14:21:45;2.50;99.90
24470;DHT22;12635;50.852;5.676;2023-01-26T14:24:13;2.30;99.90
24470;DHT22;12635;50.852;5.676;2023-01-26T14:26:40;2.40;99.90
24470;DHT22;12635;50.852;5.676;2023-01-26T14:29:09;2.50;99.90
24470;DHT22;12635;50.852;5.676;2023-01-26T14:31:38;2.60;99.90
24470;DHT22;12635;50.852;5.676;2023-01-26T14:34:07;2.70;99.90
24470;DHT22;12635;50.852;5.676;2023-01-26T14:36:35;2.50;99.90
24470;DHT22;12635;50.852;5.676;2023-01-26T14:39:10;2.80;99.90
24470;DHT22;12635;50.852;5.676;2023-01-26T14:41:40;2.70;99.90
24470;DHT22;12635;50.852;5.676;2023-01-26T14:44:07;2.80;99.90
24470;DHT22;12635;50.852;5.676;2023-01-26T14:46:35;2.80;99.90
24470;DHT22;12635;50.852;5.676;2023-01-26T14:49:06;2.60;99.90
24470;DHT22;12635;50.852;5.676;2023-01-26T14:51:34;2.80;99.90
24470;DHT22;12635;50.852;5.676;2023-01-26T14:54:02;2.70;99.90
24470;DHT22;12635;50.852;5.676;2023-01-26T14:56:35;2.70;99.90
24470;DHT22;12635;50.852;5.676;2023-01-26T14:59:03;2.90;99.90
24470;DHT22;12635;50.852;5.676;2023-01-26T15:01:30;2.90;99.90
24470;DHT22;12635;50.852;5.676;2023-01-26T15:03:58;3.00;99.90
24470;DHT22;12635;50.852;5.676;2023-01-26T15:06:28;3.10;99.90
24470;DHT22;12635;50.852;5.676;2023-01-26T15:08:56;3.20;99.90
24470;DHT22;12635;50.852;5.676;2023-01-26T15:11:28;3.10;99.90
24470;DHT22;12635;50.852;5.676;2023-01-26T15:17:08;3.30;99.90
24470;DHT22;12635;50.852;5.676;2023-01-26T15:19:52;3.20;99.90
24470;DHT22;12635;50.852;5.676;2023-01-26T15:22:21;3.10;99.90
24470;DHT22;12635;50.852;5.676;2023-01-26T15:24:58;3.40;99.90
24470;DHT22;12635;50.852;5.676;2023-01-26T15:27:28;3.30;99.90
24470;DHT22;12635;50.852;5.676;2023-01-26T15:29:56;3.40;99.90
24470;DHT22;12635;50.852;5.676;2023-01-26T15:32:27;3.40;99.90
24470;DHT22;12635;50.852;5.676;2023-01-26T15:35:02;3.40;99.90
24470;DHT22;12635;50.852;5.676;2023-01-26T15:37:31;3.50;99.90
24470;DHT22;12635;50.852;5.676;2023-01-26T15:40:00;3.50;99.90
24470;DHT22;12635;50.852;5.676;2023-01-26T15:42:28;3.60;99.90
24470;DHT22;12635;50.852;5.676;2023-01-26T15:44:56;3.50;99.90
24470;DHT22;12635;50.852;5.676;2023-01-26T15:47:23;3.70;99.90
24470;DHT22;12635;50.852;5.676;2023-01-26T15:49:50;3.50;99.90
24470;DHT22;12635;50.852;5.676;2023-01-26T15:52:17;3.70;99.90
24470;DHT22;12635;50.852;5.676;2023-01-26T15:54:46;3.60;99.90
24470;DHT22;12635;50.852;5.676;2023-01-26T15:57:14;3.60;99.90
24470;DHT22;12635;50.852;5.676;2023-01-26T15:59:41;3.70;99.90
24470;DHT22;12635;50.852;5.676;2023-01-26T16:02:09;3.60;99.90
24470;DHT22;12635;50.852;5.676;2023-01-26T16:04:38;3.60;99.90